sensor_id;sensor_type;location;lat;lon;timestamp;pressure;altitude;pressure_sealevel;temperature
6550;BMP280;15142;48.888;9.134;2023-06-04T00:00:15;98066.13;;;16.64
6550;BMP280;15142;48.888;9.134;2023-06-04T00:02:57;98078.56;;;16.62
6550;BMP280;15142;48.888;9.134;2023-06-04T00:05:52;98070.09;;;16.62
6550;BMP280;15142;48.888;9.134;2023-06-04T00:08:34;98079.94;;;16.60
6550;BMP280;15142;48.888;9.134;2023-06-04T00:11:29;98069.94;;;16.58
6550;BMP280;15142;48.888;9.134;2023-06-04T00:14:15;98064.47;;;16.60
6550;BMP280;15142;48.888;9.134;2023-06-04T00:17:10;98070.56;;;16.56
6550;BMP280;15142;48.888;9.134;2023-06-04T00:19:52;98072.06;;;16.56
6550;BMP280;15142;48.888;9.134;2023-06-04T00:22:47;98068.16;;;16.51
6550;BMP280;15142;48.888;9.134;2023-06-04T00:25:29;98069.69;;;16.43
6550;BMP280;15142;48.888;9.134;2023-06-04T00:28:24;98065.38;;;16.35
6550;BMP280;15142;48.888;9.134;2023-06-04T00:31:09;98061.31;;;16.26
6550;BMP280;15142;48.888;9.134;2023-06-04T00:34:04;98064.66;;;16.18
6550;BMP280;15142;48.888;9.134;2023-06-04T00:36:46;98064.69;;;16.10
6550;BMP280;15142;48.888;9.134;2023-06-04T00:39:41;98070.00;;;16.05
6550;BMP280;15142;48.888;9.134;2023-06-04T00:42:23;98063.19;;;16.00
6550;BMP280;15142;48.888;9.134;2023-06-04T00:45:19;98072.00;;;15.91
6550;BMP280;15142;48.888;9.134;2023-06-04T00:48:07;98075.19;;;15.88
6550;BMP280;15142;48.888;9.134;2023-06-04T00:51:03;98089.00;;;15.84
6550;BMP280;15142;48.888;9.134;2023-06-04T00:53:45;98086.13;;;15.77
6550;BMP280;15142;48.888;9.134;2023-06-04T00:56:40;98087.78;;;15.73
6550;BMP280;15142;48.888;9.134;2023-06-04T00:59:23;98086.72;;;15.74
6550;BMP280;15142;48.888;9.134;2023-06-04T01:02:22;98085.81;;;15.78
6550;BMP280;15142;48.888;9.134;2023-06-04T01:05:11;98087.19;;;15.76
6550;BMP280;15142;48.888;9.134;2023-06-04T01:08:08;98089.31;;;15.74
6550;BMP280;15142;48.888;9.134;2023-06-04T01:10:51;98092.78;;;15.78
6550;BMP280;15142;48.888;9.134;2023-06-04T01:13:46;98094.28;;;15.79
6550;BMP280;15142;48.888;9.134;2023-06-04T01:16:34;98090.97;;;15.78
6550;BMP280;15142;48.888;9.134;2023-06-04T01:19:57;98093.38;;;15.75
6550;BMP280;15142;48.888;9.134;2023-06-04T01:22:51;98091.56;;;15.75
6550;BMP280;15142;48.888;9.134;2023-06-04T01:25:51;98089.31;;;15.74
6550;BMP280;15142;48.888;9.134;2023-06-04T01:28:37;98090.34;;;15.73
6550;BMP280;15142;48.888;9.134;2023-06-04T01:31:32;98086.88;;;15.69
6550;BMP280;15142;48.888;9.134;2023-06-04T01:34:14;98083.41;;;15.65
6550;BMP280;15142;48.888;9.134;2023-06-04T01:37:09;98091.72;;;15.62
6550;BMP280;15142;48.888;9.134;2023-06-04T01:39:55;98080.53;;;15.58
6550;BMP280;15142;48.888;9.134;2023-06-04T01:42:51;98079.75;;;15.58
6550;BMP280;15142;48.888;9.134;2023-06-04T01:45:34;98079.75;;;15.58
6550;BMP280;15142;48.888;9.134;2023-06-04T01:48:29;98079.75;;;15.58
6550;BMP280;15142;48.888;9.134;2023-06-04T01:51:11;98087.81;;;15.56
6550;BMP280;15142;48.888;9.134;2023-06-04T01:54:06;98080.56;;;15.50
6550;BMP280;15142;48.888;9.134;2023-06-04T01:56:51;98079.19;;;15.44
6550;BMP280;15142;48.888;9.134;2023-06-04T01:59:46;98082.66;;;15.40
6550;BMP280;15142;48.888;9.134;2023-06-04T02:02:29;98083.75;;;15.30
6550;BMP280;15142;48.888;9.134;2023-06-04T02:05:25;98077.94;;;15.25
6550;BMP280;15142;48.888;9.134;2023-06-04T02:08:07;98082.47;;;15.11
6550;BMP280;15142;48.888;9.134;2023-06-04T02:11:04;98087.91;;;15.01
6550;BMP280;15142;48.888;9.134;2023-06-04T02:13:49;98091.22;;;14.93
6550;BMP280;15142;48.888;9.134;2023-06-04T02:16:44;98089.69;;;14.84
6550;BMP280;15142;48.888;9.134;2023-06-04T02:19:29;98084.53;;;14.76
6550;BMP280;15142;48.888;9.134;2023-06-04T02:22:25;98089.16;;;14.65
6550;BMP280;15142;48.888;9.134;2023-06-04T02:25:07;98087.94;;;14.55
6550;BMP280;15142;48.888;9.134;2023-06-04T02:28:02;98094.09;;;14.45
6550;BMP280;15142;48.888;9.134;2023-06-04T02:30:47;98088.31;;;14.40
6550;BMP280;15142;48.888;9.134;2023-06-04T02:33:42;98093.13;;;14.33
6550;BMP280;15142;48.888;9.134;2023-06-04T02:36:24;98094.28;;;14.27
6550;BMP280;15142;48.888;9.134;2023-06-04T02:39:19;98094.88;;;14.24
6550;BMP280;15142;48.888;9.134;2023-06-04T02:42:01;98097.75;;;14.23
6550;BMP280;15142;48.888;9.134;2023-06-04T02:44:56;98088.81;;;14.20
6550;BMP280;15142;48.888;9.134;2023-06-04T02:47:41;98093.81;;;14.17
6550;BMP280;15142;48.888;9.134;2023-06-04T02:50:36;98097.81;;;14.09
6550;BMP280;15142;48.888;9.134;2023-06-04T02:53:20;98088.31;;;14.10
6550;BMP280;15142;48.888;9.134;2023-06-04T02:56:15;98103.69;;;14.10
6550;BMP280;15142;48.888;9.134;2023-06-04T02:58:57;98092.78;;;14.04
6550;BMP280;15142;48.888;9.134;2023-06-04T03:01:54;98088.31;;;14.10
6550;BMP280;15142;48.888;9.134;2023-06-04T03:04:39;98097.41;;;14.16
6550;BMP280;15142;48.888;9.134;2023-06-04T03:07:36;98098.75;;;14.13
6550;BMP280;15142;48.888;9.134;2023-06-04T03:10:20;98103.91;;;14.13
6550;BMP280;15142;48.888;9.134;2023-06-04T03:13:15;98092.88;;;14.13
6550;BMP280;15142;48.888;9.134;2023-06-04T03:15:57;98093.75;;;14.08
6550;BMP280;15142;48.888;9.134;2023-06-04T03:18:55;98096.72;;;14.02
6550;BMP280;15142;48.888;9.134;2023-06-04T03:21:40;98099.50;;;13.92
6550;BMP280;15142;48.888;9.134;2023-06-04T03:24:39;98109.13;;;13.87
6550;BMP280;15142;48.888;9.134;2023-06-04T03:27:20;98109.09;;;13.78
6550;BMP280;15142;48.888;9.134;2023-06-04T03:30:16;98118.25;;;13.71
6550;BMP280;15142;48.888;9.134;2023-06-04T03:33:07;98123.38;;;13.71
6550;BMP280;15142;48.888;9.134;2023-06-04T03:36:03;98130.69;;;13.64
6550;BMP280;15142;48.888;9.134;2023-06-04T03:38:48;98124.28;;;13.53
6550;BMP280;15142;48.888;9.134;2023-06-04T03:41:43;98121.38;;;13.20
6550;BMP280;15142;48.888;9.134;2023-06-04T03:44:28;98123.59;;;13.00
6550;BMP280;15142;48.888;9.134;2023-06-04T03:47:22;98125.25;;;12.91
6550;BMP280;15142;48.888;9.134;2023-06-04T03:50:05;98124.31;;;12.87
6550;BMP280;15142;48.888;9.134;2023-06-04T03:53:01;98130.13;;;12.92
6550;BMP280;15142;48.888;9.134;2023-06-04T03:55:46;98131.28;;;13.00
6550;BMP280;15142;48.888;9.134;2023-06-04T03:58:42;98124.72;;;13.07
6550;BMP280;15142;48.888;9.134;2023-06-04T04:01:25;98128.34;;;13.19
6550;BMP280;15142;48.888;9.134;2023-06-04T04:04:19;98130.47;;;13.26
6550;BMP280;15142;48.888;9.134;2023-06-04T04:07:01;98143.50;;;13.29
6550;BMP280;15142;48.888;9.134;2023-06-04T04:09:57;98136.16;;;13.36
6550;BMP280;15142;48.888;9.134;2023-06-04T04:12:42;98142.59;;;13.47
6550;BMP280;15142;48.888;9.134;2023-06-04T04:15:44;98139.34;;;13.55
6550;BMP280;15142;48.888;9.134;2023-06-04T04:18:26;98140.78;;;13.61
6550;BMP280;15142;48.888;9.134;2023-06-04T04:21:20;98137.44;;;13.73
6550;BMP280;15142;48.888;9.134;2023-06-04T04:24:03;98146.06;;;13.77
6550;BMP280;15142;48.888;9.134;2023-06-04T04:26:57;98155.16;;;13.83
6550;BMP280;15142;48.888;9.134;2023-06-04T04:29:44;98146.78;;;13.91
6550;BMP280;15142;48.888;9.134;2023-06-04T04:32:43;98162.69;;;14.02
6550;BMP280;15142;48.888;9.134;2023-06-04T04:35:37;98154.28;;;14.09
6550;BMP280;15142;48.888;9.134;2023-06-04T04:38:34;98157.97;;;14.17
6550;BMP280;15142;48.888;9.134;2023-06-04T04:41:16;98155.41;;;14.17
6550;BMP280;15142;48.888;9.134;2023-06-04T04:44:12;98160.31;;;14.05
6550;BMP280;15142;48.888;9.134;2023-06-04T04:46:57;98164.75;;;13.91
6550;BMP280;15142;48.888;9.134;2023-06-04T04:49:52;98164.75;;;13.91
6550;BMP280;15142;48.888;9.134;2023-06-04T04:52:34;98157.78;;;13.92
6550;BMP280;15142;48.888;9.134;2023-06-04T04:55:30;98160.63;;;13.90
6550;BMP280;15142;48.888;9.134;2023-06-04T04:58:12;98172.88;;;13.93
6550;BMP280;15142;48.888;9.134;2023-06-04T05:01:07;98164.81;;;13.86
6550;BMP280;15142;48.888;9.134;2023-06-04T05:03:53;98161.81;;;13.84
6550;BMP280;15142;48.888;9.134;2023-06-04T05:06:48;98154.97;;;13.80
6550;BMP280;15142;48.888;9.134;2023-06-04T05:09:30;98159.75;;;13.73
6550;BMP280;15142;48.888;9.134;2023-06-04T05:12:25;98160.38;;;13.78
6550;BMP280;15142;48.888;9.134;2023-06-04T05:15:10;98167.06;;;13.79
6550;BMP280;15142;48.888;9.134;2023-06-04T05:18:06;98173.00;;;13.88
6550;BMP280;15142;48.888;9.134;2023-06-04T05:20:51;98180.38;;;14.03
6550;BMP280;15142;48.888;9.134;2023-06-04T05:23:55;98187.00;;;14.04
6550;BMP280;15142;48.888;9.134;2023-06-04T05:26:39;98188.53;;;14.05
6550;BMP280;15142;48.888;9.134;2023-06-04T05:29:35;98199.72;;;14.09
6550;BMP280;15142;48.888;9.134;2023-06-04T05:32:18;98198.13;;;14.13
6550;BMP280;15142;48.888;9.134;2023-06-04T05:35:14;98206.06;;;14.25
6550;BMP280;15142;48.888;9.134;2023-06-04T05:37:58;98205.78;;;14.34
6550;BMP280;15142;48.888;9.134;2023-06-04T05:40:54;98208.16;;;14.23
6550;BMP280;15142;48.888;9.134;2023-06-04T05:43:39;98202.38;;;14.17
6550;BMP280;15142;48.888;9.134;2023-06-04T05:46:34;98203.94;;;14.27
6550;BMP280;15142;48.888;9.134;2023-06-04T05:49:18;98204.03;;;14.43
6550;BMP280;15142;48.888;9.134;2023-06-04T05:52:12;98207.53;;;14.69
6550;BMP280;15142;48.888;9.134;2023-06-04T05:54:57;98209.72;;;14.84
6550;BMP280;15142;48.888;9.134;2023-06-04T05:57:53;98208.75;;;15.01
6550;BMP280;15142;48.888;9.134;2023-06-04T06:00:35;98213.88;;;15.01
6550;BMP280;15142;48.888;9.134;2023-06-04T06:03:31;98207.75;;;15.19
6550;BMP280;15142;48.888;9.134;2023-06-04T06:06:13;98209.44;;;15.32
6550;BMP280;15142;48.888;9.134;2023-06-04T06:09:08;98210.22;;;15.57
6550;BMP280;15142;48.888;9.134;2023-06-04T06:11:53;98210.44;;;15.86
6550;BMP280;15142;48.888;9.134;2023-06-04T06:14:51;98210.69;;;16.09
6550;BMP280;15142;48.888;9.134;2023-06-04T06:17:33;98210.25;;;16.24
6550;BMP280;15142;48.888;9.134;2023-06-04T06:20:27;98215.81;;;16.43
6550;BMP280;15142;48.888;9.134;2023-06-04T06:23:11;98217.00;;;16.54
6550;BMP280;15142;48.888;9.134;2023-06-04T06:26:08;98218.97;;;16.48
6550;BMP280;15142;48.888;9.134;2023-06-04T06:28:57;98216.91;;;16.42
6550;BMP280;15142;48.888;9.134;2023-06-04T06:31:52;98217.97;;;16.24
6550;BMP280;15142;48.888;9.134;2023-06-04T06:34:34;98223.59;;;16.26
6550;BMP280;15142;48.888;9.134;2023-06-04T06:37:29;98226.09;;;16.51
6550;BMP280;15142;48.888;9.134;2023-06-04T06:40:21;98226.94;;;16.80
6550;BMP280;15142;48.888;9.134;2023-06-04T06:43:17;98224.09;;;17.02
6550;BMP280;15142;48.888;9.134;2023-06-04T06:46:02;98229.50;;;17.17
6550;BMP280;15142;48.888;9.134;2023-06-04T06:48:58;98223.94;;;17.15
6550;BMP280;15142;48.888;9.134;2023-06-04T06:51:40;98234.97;;;17.15
6550;BMP280;15142;48.888;9.134;2023-06-04T06:54:35;98234.00;;;17.28
6550;BMP280;15142;48.888;9.134;2023-06-04T06:57:17;98238.63;;;17.35
6550;BMP280;15142;48.888;9.134;2023-06-04T07:00:13;98232.81;;;17.46
6550;BMP280;15142;48.888;9.134;2023-06-04T07:02:58;98229.25;;;17.59
6550;BMP280;15142;48.888;9.134;2023-06-04T07:05:54;98230.69;;;17.88
6550;BMP280;15142;48.888;9.134;2023-06-04T07:08:36;98229.25;;;17.79
6550;BMP280;15142;48.888;9.134;2023-06-04T07:11:34;98225.53;;;17.88
6550;BMP280;15142;48.888;9.134;2023-06-04T07:14:16;98228.72;;;18.05
6550;BMP280;15142;48.888;9.134;2023-06-04T07:17:12;98237.47;;;18.13
6550;BMP280;15142;48.888;9.134;2023-06-04T07:19:56;98239.91;;;18.29
6550;BMP280;15142;48.888;9.134;2023-06-04T07:22:54;98237.63;;;18.28
6550;BMP280;15142;48.888;9.134;2023-06-04T07:25:36;98239.41;;;18.59
6550;BMP280;15142;48.888;9.134;2023-06-04T07:28:31;98242.13;;;18.63
6550;BMP280;15142;48.888;9.134;2023-06-04T07:31:15;98235.41;;;18.73
6550;BMP280;15142;48.888;9.134;2023-06-04T07:34:09;98237.19;;;18.81
6550;BMP280;15142;48.888;9.134;2023-06-04T07:36:54;98241.72;;;18.96
6550;BMP280;15142;48.888;9.134;2023-06-04T07:39:50;98230.22;;;19.44
6550;BMP280;15142;48.888;9.134;2023-06-04T07:42:32;98227.28;;;19.46
6550;BMP280;15142;48.888;9.134;2023-06-04T07:45:28;98225.34;;;19.43
6550;BMP280;15142;48.888;9.134;2023-06-04T07:48:10;98229.13;;;19.33
6550;BMP280;15142;48.888;9.134;2023-06-04T07:51:05;98224.22;;;19.17
6550;BMP280;15142;48.888;9.134;2023-06-04T07:53:49;98226.81;;;19.28
6550;BMP280;15142;48.888;9.134;2023-06-04T07:56:45;98237.59;;;19.96
6550;BMP280;15142;48.888;9.134;2023-06-04T07:59:27;98229.88;;;20.27
6550;BMP280;15142;48.888;9.134;2023-06-04T08:02:22;98224.78;;;20.15
6550;BMP280;15142;48.888;9.134;2023-06-04T08:05:04;98227.59;;;20.10
6550;BMP280;15142;48.888;9.134;2023-06-04T08:07:59;98218.44;;;19.85
6550;BMP280;15142;48.888;9.134;2023-06-04T08:10:44;98225.16;;;20.17
6550;BMP280;15142;48.888;9.134;2023-06-04T08:13:40;98228.78;;;20.28
6550;BMP280;15142;48.888;9.134;2023-06-04T08:16:22;98220.75;;;20.33
6550;BMP280;15142;48.888;9.134;2023-06-04T08:19:17;98224.00;;;20.75
6550;BMP280;15142;48.888;9.134;2023-06-04T08:21:59;98228.00;;;20.88
6550;BMP280;15142;48.888;9.134;2023-06-04T08:24:57;98218.22;;;20.21
6550;BMP280;15142;48.888;9.134;2023-06-04T08:27:41;98213.81;;;20.52
6550;BMP280;15142;48.888;9.134;2023-06-04T08:30:37;98215.34;;;20.53
6550;BMP280;15142;48.888;9.134;2023-06-04T08:33:19;98222.06;;;20.87
6550;BMP280;15142;48.888;9.134;2023-06-04T08:36:14;98230.31;;;21.08
6550;BMP280;15142;48.888;9.134;2023-06-04T08:38:56;98224.44;;;20.92
6550;BMP280;15142;48.888;9.134;2023-06-04T08:41:52;98223.59;;;20.88
6550;BMP280;15142;48.888;9.134;2023-06-04T08:44:38;98230.09;;;20.98
6550;BMP280;15142;48.888;9.134;2023-06-04T08:47:34;98236.50;;;21.38
6550;BMP280;15142;48.888;9.134;2023-06-04T08:50:19;98229.81;;;21.74
6550;BMP280;15142;48.888;9.134;2023-06-04T08:53:15;98229.97;;;21.81
6550;BMP280;15142;48.888;9.134;2023-06-04T08:55:57;98226.00;;;22.09
6550;BMP280;15142;48.888;9.134;2023-06-04T08:58:52;98230.88;;;21.91
6550;BMP280;15142;48.888;9.134;2023-06-04T09:01:38;98224.59;;;22.15
6550;BMP280;15142;48.888;9.134;2023-06-04T09:04:34;98216.91;;;22.43
6550;BMP280;15142;48.888;9.134;2023-06-04T09:07:16;98226.03;;;22.56
6550;BMP280;15142;48.888;9.134;2023-06-04T09:10:16;98224.94;;;22.57
6550;BMP280;15142;48.888;9.134;2023-06-04T09:13:01;98220.88;;;22.60
6550;BMP280;15142;48.888;9.134;2023-06-04T09:16:00;98222.19;;;22.50
6550;BMP280;15142;48.888;9.134;2023-06-04T09:18:44;98212.78;;;22.65
6550;BMP280;15142;48.888;9.134;2023-06-04T09:21:50;98212.66;;;22.58
6550;BMP280;15142;48.888;9.134;2023-06-04T09:24:40;98217.97;;;22.65
6550;BMP280;15142;48.888;9.134;2023-06-04T09:27:39;98224.31;;;22.93
6550;BMP280;15142;48.888;9.134;2023-06-04T09:30:22;98210.00;;;22.80
6550;BMP280;15142;48.888;9.134;2023-06-04T09:33:17;98218.31;;;22.89
6550;BMP280;15142;48.888;9.134;2023-06-04T09:36:03;98222.31;;;22.83
6550;BMP280;15142;48.888;9.134;2023-06-04T09:38:58;98222.03;;;22.88
6550;BMP280;15142;48.888;9.134;2023-06-04T09:41:41;98224.56;;;23.10
6550;BMP280;15142;48.888;9.134;2023-06-04T09:44:43;98215.91;;;23.67
6550;BMP280;15142;48.888;9.134;2023-06-04T09:47:25;98211.28;;;23.90
6550;BMP280;15142;48.888;9.134;2023-06-04T09:50:25;98202.94;;;23.74
6550;BMP280;15142;48.888;9.134;2023-06-04T09:53:15;98208.38;;;23.98
6550;BMP280;15142;48.888;9.134;2023-06-04T09:56:14;98217.34;;;24.00
6550;BMP280;15142;48.888;9.134;2023-06-04T09:58:57;98217.03;;;23.69
6550;BMP280;15142;48.888;9.134;2023-06-04T10:01:54;98213.31;;;23.67
6550;BMP280;15142;48.888;9.134;2023-06-04T10:04:36;98220.25;;;23.92
6550;BMP280;15142;48.888;9.134;2023-06-04T10:07:35;98217.13;;;23.80
6550;BMP280;15142;48.888;9.134;2023-06-04T10:10:26;98206.75;;;23.83
6550;BMP280;15142;48.888;9.134;2023-06-04T10:13:25;98214.88;;;24.18
6550;BMP280;15142;48.888;9.134;2023-06-04T10:16:08;98219.00;;;24.19
6550;BMP280;15142;48.888;9.134;2023-06-04T10:19:06;98212.03;;;23.90
6550;BMP280;15142;48.888;9.134;2023-06-04T10:21:49;98212.97;;;24.11
6550;BMP280;15142;48.888;9.134;2023-06-04T10:24:44;98215.41;;;24.40
6550;BMP280;15142;48.888;9.134;2023-06-04T10:27:30;98205.63;;;24.27
6550;BMP280;15142;48.888;9.134;2023-06-04T10:30:25;98213.19;;;24.39
6550;BMP280;15142;48.888;9.134;2023-06-04T10:33:08;98203.53;;;24.43
6550;BMP280;15142;48.888;9.134;2023-06-04T10:36:16;98196.63;;;24.81
6550;BMP280;15142;48.888;9.134;2023-06-04T10:38:58;98195.66;;;25.09
6550;BMP280;15142;48.888;9.134;2023-06-04T10:42:00;98198.25;;;25.09
6550;BMP280;15142;48.888;9.134;2023-06-04T10:44:48;98193.16;;;25.64
6550;BMP280;15142;48.888;9.134;2023-06-04T10:47:44;98196.91;;;25.53
6550;BMP280;15142;48.888;9.134;2023-06-04T10:50:26;98190.63;;;24.77
6550;BMP280;15142;48.888;9.134;2023-06-04T10:53:21;98185.03;;;24.68
6550;BMP280;15142;48.888;9.134;2023-06-04T10:56:03;98189.03;;;25.39
6550;BMP280;15142;48.888;9.134;2023-06-04T10:58:58;98197.97;;;26.38
6550;BMP280;15142;48.888;9.134;2023-06-04T11:01:43;98199.22;;;27.14
6550;BMP280;15142;48.888;9.134;2023-06-04T11:04:38;98199.78;;;27.45
6550;BMP280;15142;48.888;9.134;2023-06-04T11:07:21;98199.00;;;27.48
6550;BMP280;15142;48.888;9.134;2023-06-04T11:10:17;98200.81;;;28.01
6550;BMP280;15142;48.888;9.134;2023-06-04T11:12:59;98193.88;;;27.81
6550;BMP280;15142;48.888;9.134;2023-06-04T11:15:54;98195.56;;;28.01
6550;BMP280;15142;48.888;9.134;2023-06-04T11:18:38;98198.13;;;28.44
6550;BMP280;15142;48.888;9.134;2023-06-04T11:21:34;98197.25;;;28.21
6550;BMP280;15142;48.888;9.134;2023-06-04T11:24:17;98196.50;;;28.57
6550;BMP280;15142;48.888;9.134;2023-06-04T11:27:12;98194.88;;;28.34
6550;BMP280;15142;48.888;9.134;2023-06-04T11:29:54;98188.69;;;27.71
6550;BMP280;15142;48.888;9.134;2023-06-04T11:32:49;98189.44;;;27.75
6550;BMP280;15142;48.888;9.134;2023-06-04T11:35:40;98190.13;;;27.32
6550;BMP280;15142;48.888;9.134;2023-06-04T11:38:36;98187.63;;;28.74
6550;BMP280;15142;48.888;9.134;2023-06-04T11:41:18;98192.19;;;28.70
6550;BMP280;15142;48.888;9.134;2023-06-04T11:44:13;98189.28;;;29.42
6550;BMP280;15142;48.888;9.134;2023-06-04T11:46:55;98186.06;;;29.57
6550;BMP280;15142;48.888;9.134;2023-06-04T11:49:54;98184.63;;;29.95
6550;BMP280;15142;48.888;9.134;2023-06-04T11:52:40;98181.13;;;28.82
6550;BMP280;15142;48.888;9.134;2023-06-04T11:55:35;98172.91;;;29.57
6550;BMP280;15142;48.888;9.134;2023-06-04T11:58:17;98177.91;;;29.49
6550;BMP280;15142;48.888;9.134;2023-06-04T12:01:12;98182.69;;;29.99
6550;BMP280;15142;48.888;9.134;2023-06-04T12:03:55;98181.16;;;29.78
6550;BMP280;15142;48.888;9.134;2023-06-04T12:06:51;98181.06;;;30.24
6550;BMP280;15142;48.888;9.134;2023-06-04T12:09:35;98169.00;;;29.65
6550;BMP280;15142;48.888;9.134;2023-06-04T12:12:31;98172.38;;;29.17
6550;BMP280;15142;48.888;9.134;2023-06-04T12:15:18;98172.84;;;29.80
6550;BMP280;15142;48.888;9.134;2023-06-04T12:18:23;98164.72;;;30.32
6550;BMP280;15142;48.888;9.134;2023-06-04T12:21:16;98171.47;;;31.02
6550;BMP280;15142;48.888;9.134;2023-06-04T12:24:14;98172.97;;;31.35
6550;BMP280;15142;48.888;9.134;2023-06-04T12:27:06;98166.19;;;31.02
6550;BMP280;15142;48.888;9.134;2023-06-04T12:30:04;98174.06;;;30.17
6550;BMP280;15142;48.888;9.134;2023-06-04T12:32:47;98164.69;;;30.70
6550;BMP280;15142;48.888;9.134;2023-06-04T12:35:43;98170.72;;;31.17
6550;BMP280;15142;48.888;9.134;2023-06-04T12:38:25;98168.94;;;29.69
6550;BMP280;15142;48.888;9.134;2023-06-04T12:41:20;98173.06;;;30.11
6550;BMP280;15142;48.888;9.134;2023-06-04T12:44:05;98166.31;;;31.15
6550;BMP280;15142;48.888;9.134;2023-06-04T12:46:53;98172.03;;;30.25
6550;BMP280;15142;48.888;9.134;2023-06-04T12:49:22;98168.94;;;30.49
6550;BMP280;15142;48.888;9.134;2023-06-04T12:51:51;98170.84;;;31.14
6550;BMP280;15142;48.888;9.134;2023-06-04T12:54:19;98175.97;;;30.36
6550;BMP280;15142;48.888;9.134;2023-06-04T12:56:48;98172.78;;;30.25
6550;BMP280;15142;48.888;9.134;2023-06-04T12:59:19;98173.69;;;30.34
6550;BMP280;15142;48.888;9.134;2023-06-04T13:01:49;98158.19;;;29.60
6550;BMP280;15142;48.888;9.134;2023-06-04T13:04:17;98162.66;;;30.93
6550;BMP280;15142;48.888;9.134;2023-06-04T13:06:46;98167.47;;;31.57
6550;BMP280;15142;48.888;9.134;2023-06-04T13:09:14;98164.34;;;32.30
6550;BMP280;15142;48.888;9.134;2023-06-04T13:11:44;98159.66;;;32.10
6550;BMP280;15142;48.888;9.134;2023-06-04T13:14:13;98161.34;;;30.66
6550;BMP280;15142;48.888;9.134;2023-06-04T13:16:44;98159.97;;;30.62
6550;BMP280;15142;48.888;9.134;2023-06-04T13:19:14;98150.84;;;30.97
6550;BMP280;15142;48.888;9.134;2023-06-04T13:21:45;98151.25;;;29.88
6550;BMP280;15142;48.888;9.134;2023-06-04T13:24:13;98145.19;;;29.01
6550;BMP280;15142;48.888;9.134;2023-06-04T13:26:42;98154.06;;;28.26
6550;BMP280;15142;48.888;9.134;2023-06-04T13:29:10;98161.22;;;29.36
6550;BMP280;15142;48.888;9.134;2023-06-04T13:31:44;98162.16;;;30.09
6550;BMP280;15142;48.888;9.134;2023-06-04T13:34:12;98150.78;;;29.03
6550;BMP280;15142;48.888;9.134;2023-06-04T13:36:41;98153.69;;;28.86
6550;BMP280;15142;48.888;9.134;2023-06-04T13:39:10;98152.69;;;29.03
6550;BMP280;15142;48.888;9.134;2023-06-04T13:41:38;98167.13;;;29.85
6550;BMP280;15142;48.888;9.134;2023-06-04T13:44:07;98158.19;;;29.60
6550;BMP280;15142;48.888;9.134;2023-06-04T13:46:35;98150.38;;;29.08
6550;BMP280;15142;48.888;9.134;2023-06-04T13:49:06;98150.75;;;28.51
6550;BMP280;15142;48.888;9.134;2023-06-04T13:51:35;98151.94;;;28.76
6550;BMP280;15142;48.888;9.134;2023-06-04T13:54:04;98153.19;;;28.68
6550;BMP280;15142;48.888;9.134;2023-06-04T13:56:33;98143.25;;;27.81
6550;BMP280;15142;48.888;9.134;2023-06-04T13:59:02;98135.38;;;27.81
6550;BMP280;15142;48.888;9.134;2023-06-04T14:01:31;98137.94;;;27.44
6550;BMP280;15142;48.888;9.134;2023-06-04T14:04:00;98137.53;;;27.49
6550;BMP280;15142;48.888;9.134;2023-06-04T14:06:34;98132.19;;;27.63
6550;BMP280;15142;48.888;9.134;2023-06-04T14:09:04;98132.38;;;27.79
6550;BMP280;15142;48.888;9.134;2023-06-04T14:11:34;98139.13;;;27.37
6550;BMP280;15142;48.888;9.134;2023-06-04T14:14:03;98135.09;;;27.72
6550;BMP280;15142;48.888;9.134;2023-06-04T14:16:32;98130.41;;;27.46
6550;BMP280;15142;48.888;9.134;2023-06-04T14:19:00;98136.84;;;27.45
6550;BMP280;15142;48.888;9.134;2023-06-04T14:21:29;98132.25;;;27.53
6550;BMP280;15142;48.888;9.134;2023-06-04T14:24:00;98131.88;;;27.51
6550;BMP280;15142;48.888;9.134;2023-06-04T14:26:29;98130.19;;;27.74
6550;BMP280;15142;48.888;9.134;2023-06-04T14:28:59;98125.59;;;27.41
6550;BMP280;15142;48.888;9.134;2023-06-04T14:31:28;98123.56;;;27.13
6550;BMP280;15142;48.888;9.134;2023-06-04T14:33:56;98119.69;;;26.74
6550;BMP280;15142;48.888;9.134;2023-06-04T14:36:25;98116.84;;;26.24
6550;BMP280;15142;48.888;9.134;2023-06-04T14:38:54;98109.06;;;25.72
6550;BMP280;15142;48.888;9.134;2023-06-04T14:41:25;98114.94;;;26.35
6550;BMP280;15142;48.888;9.134;2023-06-04T14:43:53;98119.88;;;26.12
6550;BMP280;15142;48.888;9.134;2023-06-04T14:46:22;98109.06;;;26.03
6550;BMP280;15142;48.888;9.134;2023-06-04T14:48:51;98114.31;;;25.90
6550;BMP280;15142;48.888;9.134;2023-06-04T14:51:20;98103.75;;;26.31
6550;BMP280;15142;48.888;9.134;2023-06-04T14:53:49;98103.66;;;26.58
6550;BMP280;15142;48.888;9.134;2023-06-04T14:56:18;98104.31;;;26.69
6550;BMP280;15142;48.888;9.134;2023-06-04T14:58:50;98099.13;;;26.62
6550;BMP280;15142;48.888;9.134;2023-06-04T15:01:19;98095.84;;;26.41
6550;BMP280;15142;48.888;9.134;2023-06-04T15:03:48;98098.84;;;26.43
6550;BMP280;15142;48.888;9.134;2023-06-04T15:06:18;98092.53;;;26.20
6550;BMP280;15142;48.888;9.134;2023-06-04T15:08:47;98093.31;;;26.17
6550;BMP280;15142;48.888;9.134;2023-06-04T15:11:16;98097.09;;;25.99
6550;BMP280;15142;48.888;9.134;2023-06-04T15:13:44;98087.38;;;25.99
6550;BMP280;15142;48.888;9.134;2023-06-04T15:16:16;98083.66;;;25.87
6550;BMP280;15142;48.888;9.134;2023-06-04T15:18:44;98088.88;;;25.94
6550;BMP280;15142;48.888;9.134;2023-06-04T15:21:13;98086.63;;;25.85
6550;BMP280;15142;48.888;9.134;2023-06-04T15:23:41;98082.16;;;25.79
6550;BMP280;15142;48.888;9.134;2023-06-04T15:26:15;98083.31;;;25.57
6550;BMP280;15142;48.888;9.134;2023-06-04T15:28:43;98080.66;;;25.61
6550;BMP280;15142;48.888;9.134;2023-06-04T15:31:14;98084.44;;;25.49
6550;BMP280;15142;48.888;9.134;2023-06-04T15:33:43;98084.81;;;25.51
6550;BMP280;15142;48.888;9.134;2023-06-04T15:36:11;98083.69;;;25.56
6550;BMP280;15142;48.888;9.134;2023-06-04T15:38:40;98091.91;;;25.41
6550;BMP280;15142;48.888;9.134;2023-06-04T15:41:09;98086.69;;;25.51
6550;BMP280;15142;48.888;9.134;2023-06-04T15:43:37;98079.56;;;25.58
6550;BMP280;15142;48.888;9.134;2023-06-04T15:46:06;98068.00;;;25.49
6550;BMP280;15142;48.888;9.134;2023-06-04T15:48:37;98069.13;;;25.34
6550;BMP280;15142;48.888;9.134;2023-06-04T15:51:06;98067.63;;;25.37
6550;BMP280;15142;48.888;9.134;2023-06-04T15:53:34;98066.50;;;25.34
6550;BMP280;15142;48.888;9.134;2023-06-04T15:56:03;98075.81;;;25.32
6550;BMP280;15142;48.888;9.134;2023-06-04T15:58:31;98071.69;;;25.10
6550;BMP280;15142;48.888;9.134;2023-06-04T16:01:00;98069.09;;;25.10
6550;BMP280;15142;48.888;9.134;2023-06-04T16:03:29;98071.66;;;24.96
6550;BMP280;15142;48.888;9.134;2023-06-04T16:06:00;98058.97;;;24.88